Time;durP1;ratioP1;P1;durP2;ratioP2;P2;SDS_P1;SDS_P2;PMS_P1;PMS_P2;Temp;Humidity;BMP_temperature;BMP_pressure;BME280_temperature;BME280_humidity;BME280_pressure;Samples;Min_cycle;Max_cycle;Signal;HPM_P1;HPM_P2
2023/06/24 00:00:30;;;;;;;14.47;12.00;;;21.50;1.00;;;;;;5052456;28;20912;-78
2023/06/24 00:02:57;;;;;;;13.50;12.07;;;21.40;1.00;;;;;;5053084;28;20197;-78
2023/06/24 00:05:22;;;;;;;13.50;12.20;;;21.40;1.00;;;;;;5053072;28;21173;-78
2023/06/24 00:07:48;;;;;;;13.80;12.40;;;21.40;1.00;;;;;;5034558;28;20445;-78
2023/06/24 00:10:14;;;;;;;13.97;12.57;;;21.30;1.00;;;;;;5046805;28;20627;-78
2023/06/24 00:12:41;;;;;;;14.00;12.50;;;21.30;1.00;;;;;;5049425;28;20523;-78
2023/06/24 00:15:09;;;;;;;15.07;12.50;;;21.30;1.00;;;;;;5052848;28;20431;-78
2023/06/24 00:17:35;;;;;;;12.93;11.53;;;21.30;1.00;;;;;;5052572;28;20511;-78
2023/06/24 00:20:00;;;;;;;13.67;12.37;;;21.20;1.00;;;;;;5051624;28;20460;-78
2023/06/24 00:22:26;;;;;;;14.10;12.70;;;21.20;1.00;;;;;;5052232;28;20247;-78
2023/06/24 00:24:51;;;;;;;16.30;13.37;;;21.20;1.00;;;;;;5052445;28;20189;-78
2023/06/24 00:27:17;;;;;;;19.93;14.10;;;21.10;1.00;;;;;;5034009;28;20267;-78
2023/06/24 00:29:42;;;;;;;15.03;13.33;;;21.10;1.00;;;;;;5047682;28;20193;-78
2023/06/24 00:32:08;;;;;;;15.83;14.23;;;21.10;1.00;;;;;;5052174;28;20185;-78
2023/06/24 00:34:34;;;;;;;14.83;13.33;;;21.10;1.00;;;;;;5052296;28;20208;-78
2023/06/24 00:36:59;;;;;;;16.03;14.10;;;21.10;1.00;;;;;;5052101;28;20216;-77
2023/06/24 00:39:25;;;;;;;15.27;13.67;;;21.00;1.00;;;;;;5052130;28;20936;-78
2023/06/24 00:41:51;;;;;;;15.67;14.17;;;21.00;1.00;;;;;;5051344;28;20267;-78
2023/06/24 00:44:17;;;;;;;17.80;14.70;;;21.00;38.10;;;;;;5052130;28;20185;-78
2023/06/24 00:46:42;;;;;;;15.77;14.20;;;20.90;99.30;;;;;;5027641;28;20216;-78
2023/06/24 00:49:08;;;;;;;15.70;14.10;;;20.90;99.90;;;;;;5051732;28;20526;-78
2023/06/24 00:51:35;;;;;;;15.00;13.40;;;20.90;99.90;;;;;;5033501;28;20550;-78
2023/06/24 00:54:01;;;;;;;15.30;13.90;;;20.80;99.90;;;;;;5051607;28;20205;-78
2023/06/24 00:56:33;;;;;;;18.53;13.50;;;20.80;99.90;;;;;;5051142;28;21114;-78
2023/06/24 00:59:03;;;;;;;14.17;12.40;;;20.70;99.90;;;;;;5051709;28;20520;-78
2023/06/24 01:01:33;;;;;;;14.93;13.40;;;20.70;99.90;;;;;;5034139;28;20440;-78
2023/06/24 01:03:59;;;;;;;15.07;13.43;;;20.60;1.00;;;;;;5049815;28;20445;-77
2023/06/24 01:06:28;;;;;;;16.10;14.57;;;20.60;1.00;;;;;;5053468;28;20458;-78
2023/06/24 01:08:56;;;;;;;16.33;14.60;;;20.50;1.00;;;;;;5035075;28;20460;-78
2023/06/24 01:11:22;;;;;;;17.63;15.70;;;20.60;1.00;;;;;;5054260;28;20825;-78
2023/06/24 01:13:48;;;;;;;19.37;14.60;;;20.60;1.00;;;;;;5052233;28;20465;-78
2023/06/24 01:16:38;;;;;;;18.73;15.27;;;20.60;1.00;;;;;;5053199;28;20976;-78
2023/06/24 01:19:31;;;;;;;17.33;14.00;;;20.50;1.00;;;;;;5052096;28;20177;-78
2023/06/24 01:22:24;;;;;;;17.37;13.73;;;20.50;1.00;;;;;;5047242;28;20512;-78
2023/06/24 01:25:41;;;;;;;15.00;13.40;;;20.50;15.30;;;;;;5051726;28;20466;-79
2023/06/24 01:28:12;;;;;;;15.83;13.67;;;20.40;31.90;;;;;;5010472;28;22037;-78
2023/06/24 01:30:59;;;;;;;16.57;14.80;;;20.40;1.00;;;;;;5052181;28;20465;-78
2023/06/24 01:33:43;;;;;;;15.33;13.20;;;20.30;99.50;;;;;;5050932;28;20431;-78
2023/06/24 01:36:12;;;;;;;15.00;13.40;;;20.30;99.90;;;;;;5052854;28;20513;-78
2023/06/24 01:38:46;;;;;;;15.07;13.33;;;20.30;99.90;;;;;;5048777;28;20462;-78
2023/06/24 01:41:14;;;;;;;16.30;12.83;;;20.30;99.90;;;;;;5045544;28;20441;-78
2023/06/24 01:43:43;;;;;;;17.60;12.60;;;20.30;99.90;;;;;;5052252;28;20447;-78
2023/06/24 01:46:11;;;;;;;15.13;13.00;;;20.20;99.90;;;;;;5053266;28;20444;-78
2023/06/24 01:48:41;;;;;;;16.13;12.30;;;20.20;99.90;;;;;;5054484;28;20506;-78
2023/06/24 01:51:10;;;;;;;14.17;12.67;;;20.10;99.90;;;;;;5044193;28;20439;-78
2023/06/24 01:53:48;;;;;;;13.10;10.57;;;20.10;99.90;;;;;;5052215;28;20521;-78
2023/06/24 01:56:15;;;;;;;15.40;11.37;;;20.10;99.90;;;;;;5047340;28;20474;-78
2023/06/24 01:58:43;;;;;;;15.47;12.17;;;20.00;99.90;;;;;;5051286;28;20989;-80
2023/06/24 02:01:09;;;;;;;17.60;12.13;;;20.00;99.90;;;;;;5045877;28;21172;-78
2023/06/24 02:03:36;;;;;;;13.70;11.83;;;19.90;99.90;;;;;;5049677;28;20429;-78
2023/06/24 02:06:03;;;;;;;21.47;11.50;;;19.90;1.00;;;;;;5050183;28;20451;-78
2023/06/24 02:08:35;;;;;;;15.93;12.07;;;19.80;1.00;;;;;;5052959;28;20457;-78
2023/06/24 02:11:02;;;;;;;15.87;12.77;;;19.80;1.00;;;;;;5050762;28;20424;-78
2023/06/24 02:13:32;;;;;;;15.73;11.70;;;19.70;1.00;;;;;;5048300;28;20947;-77
2023/06/24 02:16:00;;;;;;;16.70;11.70;;;19.70;1.00;;;;;;5050428;28;20464;-78
2023/06/24 02:18:27;;;;;;;14.17;10.87;;;19.70;1.00;;;;;;5052916;28;20447;-77
2023/06/24 02:20:53;;;;;;;19.60;11.43;;;19.60;1.00;;;;;;5051577;28;20786;-78
2023/06/24 02:23:21;;;;;;;12.63;10.60;;;19.60;12.60;;;;;;5051533;28;20419;-78
2023/06/24 02:25:47;;;;;;;14.43;11.70;;;19.60;49.00;;;;;;5051788;28;20418;-78
2023/06/24 02:28:14;;;;;;;13.07;10.63;;;19.50;99.90;;;;;;5050552;28;20471;-77
2023/06/24 02:30:41;;;;;;;19.67;11.30;;;19.50;99.90;;;;;;5030889;28;20475;-77
2023/06/24 02:33:06;;;;;;;13.70;10.57;;;19.40;99.90;;;;;;5050900;28;20453;-78
2023/06/24 02:35:32;;;;;;;19.50;11.53;;;19.40;99.90;;;;;;5051802;28;20507;-78
2023/06/24 02:37:57;;;;;;;16.67;11.47;;;19.30;99.90;;;;;;5051374;28;20224;-77
2023/06/24 02:40:23;;;;;;;16.80;11.60;;;19.30;99.90;;;;;;5051717;28;20677;-77
2023/06/24 02:42:49;;;;;;;18.60;11.17;;;19.20;1.00;;;;;;5051774;28;20186;-77
2023/06/24 02:45:15;;;;;;;16.93;11.60;;;19.20;1.00;;;;;;5052001;28;20179;-77
2023/06/24 02:47:44;;;;;;;24.63;11.70;;;19.20;1.00;;;;;;5050188;28;20212;-78
2023/06/24 02:50:10;;;;;;;14.23;11.50;;;19.10;1.00;;;;;;5046524;28;20446;-78
2023/06/24 02:52:37;;;;;;;16.03;12.23;;;19.10;58.40;;;;;;5030455;28;20800;-77
2023/06/24 02:55:03;;;;;;;16.73;12.40;;;19.00;99.90;;;;;;5033924;28;20446;-78
2023/06/24 02:57:30;;;;;;;15.47;11.30;;;19.00;99.90;;;;;;5054821;28;20537;-78
2023/06/24 02:59:56;;;;;;;24.43;12.63;;;19.00;99.90;;;;;;5049808;28;20446;-77
2023/06/24 03:02:22;;;;;;;22.77;11.60;;;19.00;99.90;;;;;;5050235;28;20436;-77
2023/06/24 03:04:50;;;;;;;14.80;12.03;;;19.00;99.90;;;;;;5050828;28;20209;-78
2023/06/24 03:07:20;;;;;;;17.27;12.77;;;18.90;99.90;;;;;;5051987;28;20465;-78
2023/06/24 03:09:46;;;;;;;16.30;11.50;;;18.90;1.00;;;;;;5053842;28;20496;-78
2023/06/24 03:12:11;;;;;;;19.83;12.80;;;18.90;1.00;;;;;;5035476;28;20960;-77
2023/06/24 03:14:37;;;;;;;22.90;13.33;;;18.90;1.00;;;;;;5052562;28;20690;-77
2023/06/24 03:17:03;;;;;;;15.37;12.40;;;18.90;1.00;;;;;;5052988;28;20600;-77
2023/06/24 03:19:28;;;;;;;18.03;13.10;;;19.00;1.00;;;;;;5053683;28;20695;-77
2023/06/24 03:21:53;;;;;;;18.13;13.53;;;18.90;1.00;;;;;;5049491;28;20539;-78
2023/06/24 03:24:19;;;;;;;13.40;11.67;;;18.90;1.00;;;;;;5053407;28;20186;-77
2023/06/24 03:26:44;;;;;;;13.73;12.17;;;18.90;1.00;;;;;;5052556;28;20211;-78
2023/06/24 03:29:11;;;;;;;15.43;12.57;;;18.90;1.00;;;;;;5052178;28;20192;-78
2023/06/24 03:31:37;;;;;;;22.30;12.77;;;19.00;1.00;;;;;;5053821;28;20566;-78
2023/06/24 03:34:02;;;;;;;20.33;13.00;;;18.90;1.00;;;;;;5052740;28;20443;-77
2023/06/24 03:36:28;;;;;;;23.43;13.10;;;18.90;1.00;;;;;;5052551;28;21106;-78
2023/06/24 03:38:53;;;;;;;18.77;13.23;;;19.00;1.00;;;;;;5048743;28;20196;-78
2023/06/24 03:41:19;;;;;;;18.97;13.20;;;19.00;1.00;;;;;;5053676;28;20182;-78
2023/06/24 03:43:45;;;;;;;19.53;14.23;;;19.00;1.00;;;;;;5050683;28;20193;-77
2023/06/24 03:46:11;;;;;;;20.83;13.97;;;19.00;1.00;;;;;;5052752;28;20671;-78
2023/06/24 03:48:37;;;;;;;17.03;13.40;;;19.00;1.00;;;;;;5055689;28;20205;-77
2023/06/24 03:51:02;;;;;;;16.30;14.60;;;19.00;1.00;;;;;;5053081;28;20815;-77
2023/06/24 03:53:28;;;;;;;21.70;15.97;;;19.00;1.00;;;;;;5053216;28;20691;-77
2023/06/24 03:55:53;;;;;;;16.03;14.13;;;19.00;1.00;;;;;;5049531;28;20220;-78
2023/06/24 03:58:20;;;;;;;18.90;14.00;;;19.00;1.00;;;;;;5051989;28;20215;-78
2023/06/24 04:00:49;;;;;;;24.23;14.73;;;19.00;1.00;;;;;;5052195;28;20175;-78
2023/06/24 04:03:14;;;;;;;24.23;15.17;;;19.10;33.50;;;;;;5050850;28;20455;-78
2023/06/24 04:05:40;;;;;;;22.10;16.03;;;19.10;99.90;;;;;;5052720;28;20457;-78
2023/06/24 04:08:07;;;;;;;21.97;15.43;;;19.10;99.90;;;;;;5047771;28;20219;-77
2023/06/24 04:10:33;;;;;;;16.23;14.00;;;19.10;99.90;;;;;;5046462;28;20257;-78
2023/06/24 04:12:58;;;;;;;18.90;15.27;;;19.20;99.90;;;;;;5045207;28;20447;-78
2023/06/24 04:15:24;;;;;;;17.77;14.57;;;19.20;85.50;;;;;;5049548;28;20606;-77
2023/06/24 04:17:49;;;;;;;22.37;16.17;;;19.30;58.80;;;;;;5046726;28;20204;-77
2023/06/24 04:20:15;;;;;;;18.40;15.30;;;19.30;1.00;;;;;;5045582;28;20217;-78
2023/06/24 04:22:41;;;;;;;31.70;16.40;;;19.40;1.00;;;;;;5047960;28;20719;-78
2023/06/24 04:25:07;;;;;;;21.13;15.50;;;19.40;1.00;;;;;;5048165;28;20190;-78
2023/06/24 04:27:33;;;;;;;21.47;15.17;;;19.50;1.00;;;;;;5046482;28;20459;-76
2023/06/24 04:30:00;;;;;;;16.60;14.73;;;19.50;99.90;;;;;;5042592;28;20477;-78
2023/06/24 04:32:25;;;;;;;18.87;14.50;;;19.60;99.90;;;;;;5048976;28;20451;-78
2023/06/24 04:34:51;;;;;;;24.13;14.90;;;19.70;99.90;;;;;;5044462;28;20436;-77
2023/06/24 04:37:16;;;;;;;14.80;13.03;;;19.70;1.00;;;;;;5044918;28;20219;-77
2023/06/24 04:39:43;;;;;;;20.83;14.07;;;19.80;1.00;;;;;;5043901;28;20226;-77
2023/06/24 04:42:10;;;;;;;20.57;13.70;;;19.90;99.90;;;;;;5027059;28;20185;-77
2023/06/24 04:44:36;;;;;;;17.50;14.27;;;20.00;2.80;;;;;;5044550;28;20458;-78
2023/06/24 04:47:02;;;;;;;17.17;13.20;;;20.20;1.00;;;;;;5030372;28;21146;-78
2023/06/24 04:49:27;;;;;;;20.63;12.87;;;20.30;99.90;;;;;;5033142;28;20436;-78
2023/06/24 04:51:53;;;;;;;18.37;13.47;;;20.30;99.90;;;;;;5043740;28;20181;-78
2023/06/24 04:54:18;;;;;;;19.67;13.47;;;20.40;1.00;;;;;;5044012;28;20193;-78
2023/06/24 04:56:45;;;;;;;21.53;12.97;;;20.40;1.00;;;;;;5047446;28;20218;-77
2023/06/24 04:59:10;;;;;;;15.17;12.30;;;20.50;1.00;;;;;;5045627;28;20185;-78
2023/06/24 05:01:36;;;;;;;15.37;11.83;;;20.50;1.00;;;;;;5043454;28;20532;-78
2023/06/24 05:04:01;;;;;;;19.27;12.70;;;20.50;1.00;;;;;;5043530;28;20194;-78
2023/06/24 05:06:27;;;;;;;22.23;12.10;;;20.60;99.90;;;;;;5043789;28;20188;-77
2023/06/24 05:08:52;;;;;;;20.23;12.37;;;20.60;99.90;;;;;;5046580;28;20177;-77
2023/06/24 05:11:18;;;;;;;18.10;12.10;;;20.70;99.90;;;;;;5045341;28;20224;-78
2023/06/24 05:13:43;;;;;;;14.07;12.67;;;20.70;99.90;;;;;;5045281;28;20187;-78
2023/06/24 05:16:09;;;;;;;15.17;11.37;;;20.90;99.90;;;;;;5043940;28;20595;-78
2023/06/24 05:18:35;;;;;;;16.50;12.40;;;20.90;99.90;;;;;;5047175;28;20216;-78
2023/06/24 05:21:01;;;;;;;18.00;12.10;;;21.00;99.90;;;;;;5045840;28;20174;-78
2023/06/24 05:23:26;;;;;;;17.90;13.30;;;21.10;99.90;;;;;;5050349;28;21107;-78
2023/06/24 05:25:52;;;;;;;18.23;13.37;;;21.20;99.90;;;;;;5041491;28;20563;-78
2023/06/24 05:28:17;;;;;;;18.50;12.47;;;21.20;99.90;;;;;;5044829;28;20278;-78
2023/06/24 05:30:45;;;;;;;15.57;12.93;;;21.30;99.90;;;;;;5048471;28;20244;-79
2023/06/24 05:33:10;;;;;;;16.80;13.77;;;21.40;99.90;;;;;;5045529;28;20608;-78
2023/06/24 05:35:39;;;;;;;19.93;13.87;;;21.50;67.20;;;;;;5040870;28;20470;-78
2023/06/24 05:38:05;;;;;;;17.70;13.30;;;21.60;27.30;;;;;;5043501;28;20203;-78
2023/06/24 05:40:30;;;;;;;17.57;15.20;;;21.70;5.30;;;;;;5046197;28;20449;-78
2023/06/24 05:42:56;;;;;;;22.13;14.90;;;21.70;1.00;;;;;;5044591;28;20190;-78
2023/06/24 05:45:21;;;;;;;19.30;14.43;;;21.80;1.00;;;;;;5042676;28;20191;-78
2023/06/24 05:47:47;;;;;;;19.30;14.33;;;21.90;1.00;;;;;;5049380;28;20554;-77
2023/06/24 05:50:12;;;;;;;22.50;15.80;;;22.00;1.00;;;;;;5044042;28;20182;-78
2023/06/24 05:52:38;;;;;;;20.80;14.67;;;22.10;1.00;;;;;;5044937;28;20339;-78
2023/06/24 05:55:04;;;;;;;20.20;14.53;;;22.20;1.00;;;;;;5049546;28;20197;-78
2023/06/24 05:57:29;;;;;;;23.50;14.07;;;22.30;1.00;;;;;;5045416;28;20243;-78
2023/06/24 05:59:55;;;;;;;18.13;14.80;;;22.40;1.00;;;;;;5044472;28;20807;-78
2023/06/24 06:02:20;;;;;;;15.87;14.13;;;22.50;1.00;;;;;;5043916;28;20203;-76
2023/06/24 06:04:47;;;;;;;14.57;12.53;;;22.70;1.00;;;;;;5043559;28;20189;-78
2023/06/24 06:07:12;;;;;;;17.03;13.77;;;22.90;1.00;;;;;;5049672;28;20213;-76
2023/06/24 06:09:38;;;;;;;19.37;13.50;;;23.20;1.00;;;;;;5049614;28;20955;-77
2023/06/24 06:12:04;;;;;;;16.50;11.30;;;23.40;99.90;;;;;;5047521;28;21954;-77
2023/06/24 06:14:29;;;;;;;15.23;12.33;;;23.80;99.90;;;;;;5041312;28;20190;-77
2023/06/24 06:16:55;;;;;;;14.20;10.97;;;24.70;99.90;;;;;;5052632;28;20501;-77
2023/06/24 06:19:20;;;;;;;10.80;9.67;;;26.30;99.90;;;;;;5031412;28;20196;-78
2023/06/24 06:21:46;;;;;;;14.47;9.90;;;29.20;99.90;;;;;;5050348;28;20578;-78
2023/06/24 06:24:11;;;;;;;15.27;11.13;;;32.20;99.90;;;;;;5050525;28;20660;-78
2023/06/24 06:26:42;;;;;;;9.20;8.40;;;34.80;99.90;;;;;;5051863;28;20209;-78
2023/06/24 06:29:08;;;;;;;11.40;10.23;;;36.90;99.90;;;;;;5050002;28;20199;-78
2023/06/24 06:31:33;;;;;;;15.43;9.53;;;38.70;99.90;;;;;;5049822;28;20825;-79
2023/06/24 06:33:59;;;;;;;13.23;9.00;;;40.50;99.90;;;;;;5046245;28;20194;-79
2023/06/24 06:36:24;;;;;;;11.03;9.03;;;42.00;99.90;;;;;;5050701;28;20248;-79
2023/06/24 06:38:50;;;;;;;10.60;8.93;;;43.30;99.90;;;;;;5050089;28;20202;-79
2023/06/24 06:41:15;;;;;;;8.93;7.93;;;44.40;94.90;;;;;;5032075;28;20406;-76
2023/06/24 06:43:41;;;;;;;9.30;8.40;;;45.50;89.50;;;;;;5048118;28;20193;-77
2023/06/24 06:46:06;;;;;;;8.30;7.43;;;46.60;76.60;;;;;;5048212;28;20187;-77
2023/06/24 06:48:32;;;;;;;8.97;8.17;;;47.40;66.10;;;;;;5052922;28;20240;-77
2023/06/24 06:50:58;;;;;;;11.90;8.20;;;47.80;53.70;;;;;;5045935;28;20550;-77
2023/06/24 06:53:23;;;;;;;9.60;8.60;;;48.40;47.60;;;;;;5048777;28;20193;-77
2023/06/24 06:55:49;;;;;;;9.80;8.30;;;49.10;41.00;;;;;;5048212;28;20994;-77
2023/06/24 06:58:15;;;;;;;12.40;8.43;;;49.60;34.70;;;;;;5048552;28;20204;-77
2023/06/24 07:00:40;;;;;;;8.77;7.97;;;50.20;29.20;;;;;;5048275;28;20557;-77
2023/06/24 07:03:05;;;;;;;10.13;7.40;;;50.90;26.00;;;;;;5047902;28;20204;-77
2023/06/24 07:05:31;;;;;;;8.60;7.90;;;51.70;22.50;;;;;;5047628;28;20601;-77
2023/06/24 07:07:56;;;;;;;8.68;7.88;;;52.60;19.70;;;;;;5045021;28;20208;-77
2023/06/24 07:10:22;;;;;;;8.63;7.72;;;53.50;17.20;;;;;;5047746;28;20224;-78
2023/06/24 07:12:48;;;;;;;9.48;8.57;;;54.70;15.30;;;;;;5048924;28;20177;-78
2023/06/24 07:15:13;;;;;;;10.93;8.40;;;55.60;12.90;;;;;;5047808;28;20276;-78
2023/06/24 07:17:40;;;;;;;10.18;7.95;;;56.20;10.70;;;;;;5047304;28;20244;-78
2023/06/24 07:20:06;;;;;;;8.68;7.82;;;56.80;8.00;;;;;;5049629;28;20189;-78
2023/06/24 07:22:31;;;;;;;9.38;8.13;;;57.30;6.20;;;;;;5049645;28;20193;-78
2023/06/24 07:24:57;;;;;;;9.52;7.13;;;57.60;3.70;;;;;;5048680;28;20255;-79
2023/06/24 07:27:23;;;;;;;9.65;7.47;;;58.10;1.90;;;;;;5048587;28;20332;-78
2023/06/24 07:29:48;;;;;;;8.43;7.78;;;58.50;1.50;;;;;;5050577;28;20814;-77
2023/06/24 07:32:14;;;;;;;8.77;7.97;;;59.00;1.00;;;;;;5048105;28;20246;-78
2023/06/24 07:34:39;;;;;;;9.18;7.70;;;59.30;1.00;;;;;;5050954;28;20192;-77
2023/06/24 07:37:05;;;;;;;8.95;8.25;;;59.60;1.00;;;;;;5048118;28;20232;-79
2023/06/24 07:39:30;;;;;;;8.75;8.05;;;60.00;1.00;;;;;;5049965;28;20180;-78
2023/06/24 07:41:56;;;;;;;8.88;7.95;;;60.10;1.00;;;;;;5051443;28;20173;-79
2023/06/24 07:44:21;;;;;;;10.55;9.02;;;60.20;1.00;;;;;;5050762;28;20216;-78
2023/06/24 07:46:48;;;;;;;11.00;8.88;;;60.30;1.00;;;;;;5054779;28;20209;-79
2023/06/24 07:49:13;;;;;;;9.10;8.32;;;60.30;1.00;;;;;;5056876;28;20255;-79
2023/06/24 07:51:39;;;;;;;8.82;8.23;;;60.20;1.00;;;;;;5055023;28;20192;-78
2023/06/24 07:54:04;;;;;;;9.40;8.60;;;60.30;1.00;;;;;;5049564;28;20188;-78
2023/06/24 07:56:30;;;;;;;9.32;7.93;;;60.10;1.00;;;;;;5054056;28;20811;-78
2023/06/24 07:58:55;;;;;;;9.88;8.98;;;59.90;1.00;;;;;;5053909;28;20267;-78
2023/06/24 08:01:21;;;;;;;9.68;8.88;;;60.00;1.00;;;;;;5053991;28;20260;-78
2023/06/24 08:03:46;;;;;;;9.50;8.70;;;60.10;1.00;;;;;;5054057;28;20256;-78
2023/06/24 08:06:12;;;;;;;8.18;7.57;;;60.10;1.00;;;;;;5054057;28;20223;-78
2023/06/24 08:08:37;;;;;;;11.48;7.85;;;60.20;1.00;;;;;;5051307;28;20209;-78
2023/06/24 08:11:03;;;;;;;7.45;6.80;;;60.20;1.00;;;;;;5050528;28;20192;-78
2023/06/24 08:13:29;;;;;;;10.07;8.02;;;59.50;1.00;;;;;;5038733;28;20242;-78
2023/06/24 08:15:54;;;;;;;7.60;7.00;;;59.10;1.00;;;;;;5042465;28;20195;-78
2023/06/24 08:18:20;;;;;;;8.93;8.20;;;58.70;1.00;;;;;;5054192;28;20242;-77
2023/06/24 08:20:45;;;;;;;8.52;7.68;;;58.50;1.00;;;;;;5049188;28;20824;-77
2023/06/24 08:23:11;;;;;;;9.13;8.18;;;58.00;1.00;;;;;;5049026;28;20221;-78
2023/06/24 08:25:36;;;;;;;9.60;7.97;;;57.70;1.00;;;;;;5046072;28;20185;-78
2023/06/24 08:28:02;;;;;;;10.18;8.02;;;57.60;1.00;;;;;;5044530;28;20330;-78
2023/06/24 08:30:27;;;;;;;10.07;8.88;;;57.60;1.00;;;;;;5050695;28;20246;-78
2023/06/24 08:32:53;;;;;;;8.85;8.13;;;57.70;1.00;;;;;;5048889;28;20177;-78
2023/06/24 08:35:18;;;;;;;8.63;7.72;;;57.40;1.00;;;;;;5050066;28;20276;-78
2023/06/24 08:37:44;;;;;;;9.65;8.00;;;57.20;1.00;;;;;;5050404;28;20208;-78
2023/06/24 08:40:10;;;;;;;9.68;8.80;;;57.00;1.00;;;;;;5049212;28;20188;-77
2023/06/24 08:42:35;;;;;;;7.82;7.03;;;56.90;1.00;;;;;;5047220;28;20209;-78
2023/06/24 08:45:01;;;;;;;7.38;6.47;;;56.90;1.00;;;;;;5048370;28;20213;-78
2023/06/24 08:47:29;;;;;;;8.38;6.65;;;56.70;1.00;;;;;;5049073;28;20599;-78
2023/06/24 08:50:14;;;;;;;10.15;6.97;;;56.40;1.00;;;;;;5050249;28;20549;-78
2023/06/24 08:52:51;;;;;;;9.90;7.40;;;56.20;1.00;;;;;;5049258;28;20234;-78
2023/06/24 08:55:20;;;;;;;8.63;6.53;;;56.10;1.00;;;;;;5048393;28;20717;-77
2023/06/24 08:57:46;;;;;;;8.13;7.25;;;56.10;1.00;;;;;;5049745;28;20251;-78
2023/06/24 09:00:12;;;;;;;7.38;6.40;;;56.10;1.00;;;;;;5043785;28;20192;-78
2023/06/24 09:02:38;;;;;;;6.32;5.80;;;56.10;1.00;;;;;;5048943;28;20268;-77
2023/06/24 09:05:07;;;;;;;6.82;6.25;;;56.00;1.00;;;;;;5050304;28;20196;-78
2023/06/24 09:07:33;;;;;;;8.93;5.82;;;55.70;1.00;;;;;;5048167;28;20226;-78
2023/06/24 09:10:03;;;;;;;7.07;6.38;;;55.40;1.00;;;;;;5049846;28;20244;-77
2023/06/24 09:12:32;;;;;;;8.27;6.75;;;55.30;1.00;;;;;;5049756;28;20212;-77
2023/06/24 09:14:58;;;;;;;7.37;6.70;;;55.50;1.00;;;;;;5046867;28;20177;-78
2023/06/24 09:17:23;;;;;;;7.50;6.80;;;55.20;1.00;;;;;;5044732;28;20211;-78
2023/06/24 09:19:50;;;;;;;9.70;6.17;;;54.80;1.00;;;;;;5050253;28;20192;-78
2023/06/24 09:22:17;;;;;;;9.00;5.40;;;54.50;1.00;;;;;;5048584;28;20272;-77
2023/06/24 09:24:47;;;;;;;5.50;4.20;;;54.50;1.00;;;;;;5049925;28;20184;-78
2023/06/24 09:27:19;;;;;;;5.00;4.53;;;54.20;1.00;;;;;;5050040;28;20212;-78
2023/06/24 09:29:47;;;;;;;5.67;5.20;;;53.80;1.00;;;;;;5049628;28;20562;-78
2023/06/24 09:32:12;;;;;;;4.47;4.17;;;53.30;1.00;;;;;;5042348;28;20196;-78
2023/06/24 09:34:38;;;;;;;5.30;4.90;;;53.00;1.00;;;;;;5049958;28;20571;-78
2023/06/24 09:37:04;;;;;;;6.23;5.63;;;53.00;1.00;;;;;;5048207;28;20230;-77
2023/06/24 09:39:39;;;;;;;5.13;4.63;;;53.00;1.00;;;;;;5046178;28;20204;-77
2023/06/24 09:42:06;;;;;;;5.13;4.63;;;53.40;1.00;;;;;;5032030;28;20204;-78
2023/06/24 09:44:32;;;;;;;4.93;4.00;;;53.50;1.00;;;;;;5046760;28;20614;-78
2023/06/24 09:46:58;;;;;;;6.10;4.47;;;53.50;1.00;;;;;;5053631;28;20207;-78
2023/06/24 09:49:24;;;;;;;4.30;4.00;;;53.00;1.00;;;;;;5048762;28;20177;-78
2023/06/24 09:51:56;;;;;;;3.90;3.60;;;52.70;1.00;;;;;;5049460;28;20184;-78
2023/06/24 09:54:24;;;;;;;5.10;2.77;;;52.30;1.00;;;;;;5045050;28;20647;-78
2023/06/24 09:56:50;;;;;;;4.20;3.00;;;51.90;1.00;;;;;;5048666;28;20465;-77
2023/06/24 09:59:21;;;;;;;3.23;2.93;;;51.80;1.00;;;;;;5047572;28;20838;-78
2023/06/24 10:01:47;;;;;;;3.30;2.80;;;51.80;1.00;;;;;;5049783;28;20431;-78
2023/06/24 10:04:18;;;;;;;15.03;2.93;;;51.70;1.00;;;;;;5050386;28;20489;-78
2023/06/24 10:06:44;;;;;;;4.00;2.80;;;51.50;1.00;;;;;;5047839;28;20468;-78
2023/06/24 10:09:12;;;;;;;2.70;2.50;;;51.40;1.00;;;;;;5046318;28;20999;-78
2023/06/24 10:11:37;;;;;;;3.30;2.53;;;51.40;1.00;;;;;;5048786;28;20427;-78
2023/06/24 10:14:03;;;;;;;2.90;2.60;;;51.30;1.00;;;;;;5042658;28;20516;-78
2023/06/24 10:16:28;;;;;;;4.90;2.53;;;51.20;1.00;;;;;;5050084;28;20192;-78
2023/06/24 10:19:01;;;;;;;2.80;2.53;;;51.00;1.00;;;;;;5051976;28;20181;-78
2023/06/24 10:21:46;;;;;;;4.17;2.60;;;50.80;1.00;;;;;;5047526;28;20180;-78
2023/06/24 10:24:12;;;;;;;4.10;2.47;;;50.60;1.00;;;;;;5048614;28;20465;-78
2023/06/24 10:26:40;;;;;;;2.80;2.60;;;50.30;1.00;;;;;;5049431;28;20459;-78
2023/06/24 10:29:05;;;;;;;2.60;2.10;;;50.10;1.00;;;;;;5046421;28;20986;-78
2023/06/24 10:31:39;;;;;;;3.53;2.97;;;49.80;1.00;;;;;;5041581;28;20435;-78
2023/06/24 10:34:20;;;;;;;3.20;2.33;;;49.80;1.00;;;;;;5048955;28;20171;-77
2023/06/24 10:36:56;;;;;;;2.77;2.57;;;49.80;1.00;;;;;;5047419;28;20447;-77
2023/06/24 10:39:54;;;;;;;4.00;2.20;;;49.80;1.00;;;;;;5046135;28;20466;-78
2023/06/24 10:42:48;;;;;;;3.50;2.57;;;49.80;1.00;;;;;;5046007;28;20431;-78
2023/06/24 10:45:16;;;;;;;2.23;2.03;;;49.30;1.00;;;;;;5036651;28;20436;-77
2023/06/24 10:47:44;;;;;;;3.73;2.50;;;49.20;1.00;;;;;;5047434;28;21015;-78
2023/06/24 10:50:15;;;;;;;2.90;2.67;;;49.00;1.00;;;;;;5036996;28;20438;-77
2023/06/24 10:52:43;;;;;;;3.33;3.10;;;48.80;1.00;;;;;;5044068;28;20439;-78
2023/06/24 10:55:09;;;;;;;12.03;2.70;;;48.70;1.00;;;;;;5048567;28;20435;-78
2023/06/24 10:57:34;;;;;;;2.80;2.23;;;48.40;1.00;;;;;;5045401;28;20462;-76
2023/06/24 11:00:01;;;;;;;4.20;2.80;;;48.30;1.00;;;;;;5045725;28;20438;-78
2023/06/24 11:02:27;;;;;;;4.37;2.67;;;48.20;1.00;;;;;;5038987;28;20192;-77
2023/06/24 11:04:54;;;;;;;3.00;2.33;;;48.00;1.00;;;;;;5043542;28;20878;-78
2023/06/24 11:07:24;;;;;;;2.67;2.47;;;48.00;1.00;;;;;;5042529;28;20462;-78
2023/06/24 11:09:51;;;;;;;2.43;2.23;;;48.20;1.00;;;;;;5044659;28;20964;-79
2023/06/24 11:12:17;;;;;;;2.97;2.50;;;48.30;1.00;;;;;;5048273;28;20423;-78
2023/06/24 11:14:43;;;;;;;3.73;2.50;;;48.10;1.00;;;;;;5046752;28;20439;-77
2023/06/24 11:17:09;;;;;;;3.30;2.20;;;47.90;1.00;;;;;;5053165;28;20450;-78
2023/06/24 11:19:38;;;;;;;3.20;2.47;;;47.70;1.00;;;;;;5048413;28;20268;-78
2023/06/24 11:22:05;;;;;;;2.77;2.57;;;47.70;1.00;;;;;;5043823;28;20192;-78
2023/06/24 11:24:30;;;;;;;3.07;2.70;;;47.80;1.00;;;;;;5048660;28;20948;-78
2023/06/24 11:26:56;;;;;;;2.87;2.57;;;47.60;1.00;;;;;;5051668;28;20477;-78
2023/06/24 11:29:22;;;;;;;2.90;2.60;;;47.10;1.00;;;;;;5050761;28;20191;-78
2023/06/24 11:31:49;;;;;;;5.03;2.40;;;46.80;1.00;;;;;;5034271;28;20185;-76
2023/06/24 11:34:14;;;;;;;3.10;2.00;;;46.70;1.00;;;;;;5052454;28;20432;-77
2023/06/24 11:36:40;;;;;;;2.00;1.83;;;46.30;1.00;;;;;;5049759;28;20949;-77
2023/06/24 11:39:05;;;;;;;2.30;2.10;;;45.90;1.00;;;;;;5041648;28;20723;-78
2023/06/24 11:41:31;;;;;;;2.73;2.10;;;45.70;1.00;;;;;;5047294;28;20194;-78
2023/06/24 11:44:00;;;;;;;1.93;1.60;;;45.70;1.00;;;;;;5050555;28;20189;-78
2023/06/24 11:46:36;;;;;;;3.60;2.47;;;45.50;1.00;;;;;;5049436;28;20645;-78
2023/06/24 11:49:08;;;;;;;3.30;2.17;;;45.40;1.00;;;;;;5047845;28;20514;-77
2023/06/24 11:51:35;;;;;;;2.13;1.97;;;45.30;1.00;;;;;;5050835;28;20861;-78
2023/06/24 11:54:05;;;;;;;2.00;1.70;;;45.40;1.00;;;;;;5047541;28;20549;-78
2023/06/24 11:56:37;;;;;;;2.17;1.90;;;45.50;1.00;;;;;;5043847;28;20844;-78
2023/06/24 11:59:07;;;;;;;1.87;1.77;;;45.20;1.00;;;;;;5052107;28;20471;-78
2023/06/24 12:01:39;;;;;;;3.23;2.20;;;45.20;1.00;;;;;;5056202;28;20910;-79
2023/06/24 12:04:14;;;;;;;2.10;1.90;;;45.00;1.00;;;;;;5056354;28;20435;-77
2023/06/24 12:06:43;;;;;;;2.43;2.23;;;45.00;1.00;;;;;;5054886;28;21073;-78
2023/06/24 12:09:09;;;;;;;2.23;2.03;;;44.90;1.00;;;;;;5054324;28;20439;-78
2023/06/24 12:11:36;;;;;;;2.10;1.90;;;44.80;1.00;;;;;;5049168;28;20470;-77
2023/06/24 12:14:01;;;;;;;2.73;2.03;;;44.60;1.00;;;;;;5042364;28;20440;-78
2023/06/24 12:16:27;;;;;;;2.00;1.80;;;44.40;1.00;;;;;;5052914;28;20522;-78
2023/06/24 12:18:53;;;;;;;2.60;2.20;;;44.20;1.00;;;;;;5050547;28;20193;-78
2023/06/24 12:21:19;;;;;;;1.97;1.77;;;44.00;1.00;;;;;;5050747;28;20444;-79
2023/06/24 12:23:45;;;;;;;2.57;2.20;;;43.80;1.00;;;;;;5036507;28;20189;-78
2023/06/24 12:26:11;;;;;;;1.90;1.70;;;43.50;1.00;;;;;;5051668;28;20213;-77
2023/06/24 12:28:37;;;;;;;2.53;1.70;;;43.40;1.00;;;;;;5054586;28;20216;-77
2023/06/24 12:31:02;;;;;;;1.83;1.67;;;43.40;1.00;;;;;;5046079;28;21629;-77
2023/06/24 12:33:28;;;;;;;1.73;1.63;;;43.00;1.00;;;;;;5036138;28;20186;-78
2023/06/24 12:35:54;;;;;;;2.33;2.00;;;42.80;1.00;;;;;;5053331;28;20190;-78
2023/06/24 12:38:19;;;;;;;2.73;2.00;;;42.70;1.00;;;;;;5054301;28;20296;-78
2023/06/24 12:40:45;;;;;;;3.47;1.90;;;42.50;1.00;;;;;;5054649;28;20185;-77
2023/06/24 12:43:11;;;;;;;2.00;1.80;;;42.30;1.00;;;;;;5054283;28;20189;-77